Thunder radar more information blitzortung!


Radar de pluja more information rain snow radar


Visita la nostra xarxa de llocs de meteo:

Template documentation
and downloads

And another site



No particular awareness of the weather is required.    There are no Weather-warnings

Pagina Historial Weather Underground text

Diari Resum Juny 12, 2017 Unitats:  Tant    Imperial   Mètric
« Previous Dia
SegĂźent Dia »
Diari Setmana Mensual Anual Personalitzada
  Maxima: Minima: Media:
Temperatura: 92.7 °F /  33.7 °C 64.9 °F /  18.3 °C 81.7 °F /  27.6 °C
Punt de rosada: 51.8 °F /  11.0 °C 43.5 °F /  6.4 °C 48 °F /  8.9 °C
Humitat: 51 % 22 % 32 %
Wind Speed: 13.8 mph /  22.2 km/h - 4 mph /  6.4 km/h
RĂ fegues de vent: 13.8 mph /  22.2 km/h - -
Vent:- - South
Pression baro: 30 in /  1016.8 hPa 29.9 in /  1012.8 hPa -
Precipitacions: 0 in /  0.0 mm    
Historical Graphs
 
 
Dades de taula per Juny 12, 2017
Temps Temperatura Punt de rosada Pression baro Vent Wind Speed RĂ fegues de vent Humitat Rainfall Rate (Hourly)
00:00 66.4 °F /  19.1 °C 44.4 °F /  6.9 °C 30 in /  1015.8 hPa WSW 1 mph /  1.6 km/h 1 mph /  1.6 km/h 45 % 0 in /  0.0 mm
00:02 73.2 °F /  22.9 °C 43.9 °F /  6.6 °C 30 in /  1014.8 hPa Calm     35 % 0 in /  0.0 mm
00:07 72.9 °F /  22.7 °C 44.2 °F /  6.8 °C 30 in /  1014.8 hPa Calm     36 % 0 in /  0.0 mm
00:10 66.6 °F /  19.2 °C 45.1 °F /  7.3 °C 30 in /  1015.8 hPa Calm     46 % 0 in /  0.0 mm
00:20 66.6 °F /  19.2 °C 45.1 °F /  7.3 °C 30 in /  1015.8 hPa Calm   1 mph /  1.6 km/h 46 % 0 in /  0.0 mm
00:30 66.2 °F /  19.0 °C 43.5 °F /  6.4 °C 30 in /  1015.8 hPa Calm     44 % 0 in /  0.0 mm
00:40 65.8 °F /  18.8 °C 44.4 °F /  6.9 °C 30 in /  1015.8 hPa ESE 1 mph /  1.6 km/h 2 mph /  3.2 km/h 46 % 0 in /  0.0 mm
00:50 65.8 °F /  18.8 °C 44.4 °F /  6.9 °C 30 in /  1015.8 hPa ENE 2 mph /  3.2 km/h 2 mph /  3.2 km/h 46 % 0 in /  0.0 mm
01:00 65.8 °F /  18.8 °C 44.4 °F /  6.9 °C 30 in /  1015.8 hPa Calm     46 % 0 in /  0.0 mm
01:10 65.8 °F /  18.8 °C 44.4 °F /  6.9 °C 30 in /  1016.8 hPa Calm     46 % 0 in /  0.0 mm
01:20 65.5 °F /  18.6 °C 44.1 °F /  6.7 °C 30 in /  1015.8 hPa NE 1 mph /  1.6 km/h 2 mph /  3.2 km/h 46 % 0 in /  0.0 mm
01:30 65.3 °F /  18.5 °C 44.1 °F /  6.7 °C 30 in /  1015.8 hPa Calm   1 mph /  1.6 km/h 46 % 0 in /  0.0 mm
01:40 65.1 °F /  18.4 °C 43.9 °F /  6.6 °C 30 in /  1015.8 hPa SW 1 mph /  1.6 km/h 3 mph /  4.8 km/h 46 % 0 in /  0.0 mm
01:50 64.9 °F /  18.3 °C 43.7 °F /  6.5 °C 30 in /  1015.8 hPa SW 2 mph /  3.2 km/h 2 mph /  3.2 km/h 46 % 0 in /  0.0 mm
02:00 65.5 °F /  18.6 °C 43.5 °F /  6.4 °C 30 in /  1015.8 hPa WSW 1 mph /  1.6 km/h 2 mph /  3.2 km/h 45 % 0 in /  0.0 mm
02:10 66.2 °F /  19.0 °C 43.5 °F /  6.4 °C 30 in /  1015.8 hPa WSW 1 mph /  1.6 km/h 2 mph /  3.2 km/h 44 % 0 in /  0.0 mm
02:20 67.3 °F /  19.6 °C 44.6 °F /  7.0 °C 30 in /  1015.8 hPa Calm   1 mph /  1.6 km/h 44 % 0 in /  0.0 mm
02:30 68.7 °F /  20.4 °C 45.9 °F /  7.7 °C 30 in /  1015.8 hPa Calm     44 % 0 in /  0.0 mm
02:40 70.2 °F /  21.2 °C 46.6 °F /  8.1 °C 30 in /  1015.8 hPa Calm     43 % 0 in /  0.0 mm
02:50 70.5 °F /  21.4 °C 45.7 °F /  7.6 °C 30 in /  1015.8 hPa SSW 1 mph /  1.6 km/h 2 mph /  3.2 km/h 41 % 0 in /  0.0 mm
03:00 70.9 °F /  21.6 °C 46 °F /  7.8 °C 30 in /  1015.8 hPa Calm   1 mph /  1.6 km/h 41 % 0 in /  0.0 mm
03:10 71.8 °F /  22.1 °C 46.8 °F /  8.2 °C 30 in /  1016.8 hPa Calm   2 mph /  3.2 km/h 41 % 0 in /  0.0 mm
03:20 73.8 °F /  23.2 °C 47.8 °F /  8.8 °C 30 in /  1015.8 hPa Calm   1 mph /  1.6 km/h 40 % 0 in /  0.0 mm
03:30 73 °F /  22.8 °C 47.3 °F /  8.5 °C 30 in /  1015.8 hPa South 1 mph /  1.6 km/h 2 mph /  3.2 km/h 40 % 0 in /  0.0 mm
03:40 73.2 °F /  22.9 °C 48 °F /  8.9 °C 30 in /  1016.8 hPa SW 1 mph /  1.6 km/h 3 mph /  4.8 km/h 41 % 0 in /  0.0 mm
03:50 73.8 °F /  23.2 °C 47.3 °F /  8.5 °C 30 in /  1016.8 hPa Calm   3 mph /  4.8 km/h 39 % 0 in /  0.0 mm
04:00 75.4 °F /  24.1 °C 48.7 °F /  9.3 °C 30 in /  1016.8 hPa SW 1 mph /  1.6 km/h 1 mph /  1.6 km/h 39 % 0 in /  0.0 mm
04:10 75.7 °F /  24.3 °C 48.9 °F /  9.4 °C 30 in /  1016.8 hPa SSE 2 mph /  3.2 km/h 4 mph /  6.4 km/h 39 % 0 in /  0.0 mm
04:20 77 °F /  25.0 °C 48.7 °F /  9.3 °C 30 in /  1016.8 hPa SE 2 mph /  3.2 km/h 2 mph /  3.2 km/h 37 % 0 in /  0.0 mm
04:30 77.5 °F /  25.3 °C 49.3 °F /  9.6 °C 30 in /  1016.8 hPa East 2 mph /  3.2 km/h 2 mph /  3.2 km/h 37 % 0 in /  0.0 mm
04:40 79.5 °F /  26.4 °C 51.1 °F /  10.6 °C 30 in /  1016.8 hPa ENE 1 mph /  1.6 km/h 2 mph /  3.2 km/h 37 % 0 in /  0.0 mm
04:50 80.4 °F /  26.9 °C 51.8 °F /  11.0 °C 30 in /  1016.8 hPa NNE 1 mph /  1.6 km/h 2 mph /  3.2 km/h 37 % 0 in /  0.0 mm
05:00 79.9 °F /  26.6 °C 50.5 °F /  10.3 °C 30 in /  1016.8 hPa NE 3 mph /  4.8 km/h 5 mph /  8.0 km/h 36 % 0 in /  0.0 mm
05:10 79.9 °F /  26.6 °C 48.9 °F /  9.4 °C 30 in /  1016.8 hPa ENE 3 mph /  4.8 km/h 5 mph /  8.0 km/h 34 % 0 in /  0.0 mm
05:20 82 °F /  27.8 °C 50.2 °F /  10.1 °C 30 in /  1015.8 hPa ENE 2 mph /  3.2 km/h 2 mph /  3.2 km/h 33 % 0 in /  0.0 mm
05:30 81.5 °F /  27.5 °C 48.7 °F /  9.3 °C 30 in /  1015.8 hPa East 3 mph /  4.8 km/h 5 mph /  8.0 km/h 32 % 0 in /  0.0 mm
05:40 81.9 °F /  27.7 °C 48.4 °F /  9.1 °C 30 in /  1015.8 hPa ENE 3 mph /  4.8 km/h 5 mph /  8.0 km/h 31 % 0 in /  0.0 mm
05:50 82 °F /  27.8 °C 47.5 °F /  8.6 °C 30 in /  1015.8 hPa East 3 mph /  4.8 km/h 5 mph /  8.0 km/h 30 % 0 in /  0.0 mm
10:57 82.9 °F /  28.3 °C 48.4 °F /  9.1 °C 30 in /  1015.8 hPa ESE 4.6 mph /  7.4 km/h 4.6 mph /  7.4 km/h 30 % 0 in /  0.0 mm
11:02 83.5 °F /  28.6 °C 48.7 °F /  9.3 °C 30 in /  1015.8 hPa SE 4.6 mph /  7.4 km/h 4.6 mph /  7.4 km/h 30 % 0 in /  0.0 mm
11:03 83.5 °F /  28.6 °C 48.7 °F /  9.3 °C 30 in /  1015.8 hPa ESE 4.9 mph /  7.9 km/h 4.9 mph /  7.9 km/h 30 % 0 in /  0.0 mm
11:08 83.3 °F /  28.5 °C 47.7 °F /  8.7 °C 30 in /  1015.8 hPa ESE 5.8 mph /  9.3 km/h 5.8 mph /  9.3 km/h 29 % 0 in /  0.0 mm
11:13 84.6 °F /  29.2 °C 48.7 °F /  9.3 °C 30 in /  1015.8 hPa East 5.8 mph /  9.3 km/h 5.8 mph /  9.3 km/h 29 % 0 in /  0.0 mm
11:18 84.6 °F /  29.2 °C 48.7 °F /  9.3 °C 30 in /  1015.8 hPa ENE 4.6 mph /  7.4 km/h 4.6 mph /  7.4 km/h 29 % 0 in /  0.0 mm
11:23 85.6 °F /  29.8 °C 48.7 °F /  9.3 °C 30 in /  1015.8 hPa ESE 8.5 mph /  13.7 km/h 8.5 mph /  13.7 km/h 28 % 0 in /  0.0 mm
11:28 85.6 °F /  29.8 °C 49.6 °F /  9.8 °C 30 in /  1015.8 hPa East 3.8 mph /  6.1 km/h 3.8 mph /  6.1 km/h 29 % 0 in /  0.0 mm
11:33 85.3 °F /  29.6 °C 48.6 °F /  9.2 °C 30 in /  1015.8 hPa SE 6.9 mph /  11.1 km/h 6.9 mph /  11.1 km/h 28 % 0 in /  0.0 mm
11:38 85.6 °F /  29.8 °C 47.8 °F /  8.8 °C 30 in /  1015.8 hPa South 3.5 mph /  5.6 km/h 3.5 mph /  5.6 km/h 27 % 0 in /  0.0 mm
11:43 86.7 °F /  30.4 °C 48.7 °F /  9.3 °C 30 in /  1015.8 hPa South 5.8 mph /  9.3 km/h 5.8 mph /  9.3 km/h 27 % 0 in /  0.0 mm
11:48 86.4 °F /  30.2 °C 48.4 °F /  9.1 °C 30 in /  1015.8 hPa NNE 4.6 mph /  7.4 km/h 4.6 mph /  7.4 km/h 27 % 0 in /  0.0 mm
11:53 86.7 °F /  30.4 °C 48.7 °F /  9.3 °C 30 in /  1015.8 hPa NNE 2.3 mph /  3.7 km/h 2.3 mph /  3.7 km/h 27 % 0 in /  0.0 mm
11:58 87.3 °F /  30.7 °C 48.2 °F /  9.0 °C 30 in /  1015.8 hPa South 2.4 mph /  3.9 km/h 2.4 mph /  3.9 km/h 26 % 0 in /  0.0 mm
12:03 87.1 °F /  30.6 °C 48 °F /  8.9 °C 30 in /  1015.8 hPa ENE 8.1 mph /  13.0 km/h 8.1 mph /  13.0 km/h 26 % 0 in /  0.0 mm
12:08 87.4 °F /  30.8 °C 48.4 °F /  9.1 °C 30 in /  1015.8 hPa East 5.8 mph /  9.3 km/h 5.8 mph /  9.3 km/h 26 % 0 in /  0.0 mm
12:13 87.6 °F /  30.9 °C 48.6 °F /  9.2 °C 30 in /  1015.8 hPa ENE 4.6 mph /  7.4 km/h 4.6 mph /  7.4 km/h 26 % 0 in /  0.0 mm
12:18 87.4 °F /  30.8 °C 48.4 °F /  9.1 °C 30 in /  1015.8 hPa NNE 5.8 mph /  9.3 km/h 5.8 mph /  9.3 km/h 26 % 0 in /  0.0 mm
12:23 87.3 °F /  30.7 °C 48.2 °F /  9.0 °C 30 in /  1015.8 hPa ENE 3.8 mph /  6.1 km/h 5.4 mph /  8.7 km/h 26 % 0 in /  0.0 mm
12:28 88.2 °F /  31.2 °C 47.8 °F /  8.8 °C 30 in /  1015.8 hPa NE 5.8 mph /  9.3 km/h 5.8 mph /  9.3 km/h 25 % 0 in /  0.0 mm
12:33 88.3 °F /  31.3 °C 49.1 °F /  9.5 °C 30 in /  1015.8 hPa NE 4.6 mph /  7.4 km/h 4.6 mph /  7.4 km/h 26 % 0 in /  0.0 mm
12:38 88.7 °F /  31.5 °C 49.5 °F /  9.7 °C 30 in /  1015.8 hPa SSE 4.6 mph /  7.4 km/h 4.6 mph /  7.4 km/h 26 % 0 in /  0.0 mm
12:43 88.9 °F /  31.6 °C 48.6 °F /  9.2 °C 30 in /  1015.8 hPa ENE 5.8 mph /  9.3 km/h 5.8 mph /  9.3 km/h 25 % 0 in /  0.0 mm
12:48 88.9 °F /  31.6 °C 48.6 °F /  9.2 °C 30 in /  1015.8 hPa ESE 5.9 mph /  9.5 km/h 5.9 mph /  9.5 km/h 25 % 0 in /  0.0 mm
12:53 88.7 °F /  31.5 °C 49.5 °F /  9.7 °C 30 in /  1015.8 hPa ESE 6.4 mph /  10.3 km/h 6.4 mph /  10.3 km/h 26 % 0 in /  0.0 mm
12:58 89.4 °F /  31.9 °C 50 °F /  10.0 °C 30 in /  1015.8 hPa ENE 6.2 mph /  10.0 km/h 6.2 mph /  10.0 km/h 26 % 0 in /  0.0 mm
13:03 89.1 °F /  31.7 °C 48.7 °F /  9.3 °C 30 in /  1015.8 hPa NE 5.8 mph /  9.3 km/h 5.8 mph /  9.3 km/h 25 % 0 in /  0.0 mm
13:08 89.6 °F /  32.0 °C 49.1 °F /  9.5 °C 30 in /  1015.8 hPa ENE 5.8 mph /  9.3 km/h 5.8 mph /  9.3 km/h 25 % 0 in /  0.0 mm
13:13 89.2 °F /  31.8 °C 49.8 °F /  9.9 °C 30 in /  1015.8 hPa ENE 5.8 mph /  9.3 km/h 5.8 mph /  9.3 km/h 26 % 0 in /  0.0 mm
13:18 88.9 °F /  31.6 °C 48.6 °F /  9.2 °C 30 in /  1014.8 hPa NNE 6.9 mph /  11.1 km/h 6.9 mph /  11.1 km/h 25 % 0 in /  0.0 mm
13:23 89.8 °F /  32.1 °C 48.2 °F /  9.0 °C 30 in /  1014.8 hPa SE 7.4 mph /  11.9 km/h 7.4 mph /  11.9 km/h 24 % 0 in /  0.0 mm
13:28 89.1 °F /  31.7 °C 48.7 °F /  9.3 °C 30 in /  1014.8 hPa SE 9.2 mph /  14.8 km/h 9.2 mph /  14.8 km/h 25 % 0 in /  0.0 mm
13:33 89.8 °F /  32.1 °C 49.3 °F /  9.6 °C 30 in /  1015.8 hPa SE 13.8 mph /  22.2 km/h 13.8 mph /  22.2 km/h 25 % 0 in /  0.0 mm
13:38 88.7 °F /  31.5 °C 49.5 °F /  9.7 °C 30 in /  1015.8 hPa ESE 8.1 mph /  13.0 km/h 8.1 mph /  13.0 km/h 26 % 0 in /  0.0 mm
13:43 89.1 °F /  31.7 °C 49.6 °F /  9.8 °C 30 in /  1015.8 hPa NE 8.1 mph /  13.0 km/h 8.1 mph /  13.0 km/h 26 % 0 in /  0.0 mm
13:48 88.9 °F /  31.6 °C 49.6 °F /  9.8 °C 30 in /  1015.8 hPa ENE 7.8 mph /  12.6 km/h 7.8 mph /  12.6 km/h 26 % 0 in /  0.0 mm
13:53 88.5 °F /  31.4 °C 49.3 °F /  9.6 °C 30 in /  1015.8 hPa SE 8.1 mph /  13.0 km/h 8.1 mph /  13.0 km/h 26 % 0 in /  0.0 mm
13:58 89.2 °F /  31.8 °C 49.8 °F /  9.9 °C 30 in /  1015.8 hPa SSE 8.1 mph /  13.0 km/h 8.1 mph /  13.0 km/h 26 % 0 in /  0.0 mm
14:03 88.9 °F /  31.6 °C 49.6 °F /  9.8 °C 30 in /  1015.8 hPa ESE 8.1 mph /  13.0 km/h 8.1 mph /  13.0 km/h 26 % 0 in /  0.0 mm
14:08 88.5 °F /  31.4 °C 49.3 °F /  9.6 °C 30 in /  1015.8 hPa East 10.4 mph /  16.7 km/h 10.4 mph /  16.7 km/h 26 % 0 in /  0.0 mm
14:13 87.6 °F /  30.9 °C 47.5 °F /  8.6 °C 30 in /  1015.8 hPa ESE 13 mph /  20.9 km/h 13 mph /  20.9 km/h 25 % 0 in /  0.0 mm
14:18 87.3 °F /  30.7 °C 47.1 °F /  8.4 °C 30 in /  1015.8 hPa ENE 8.1 mph /  13.0 km/h 8.1 mph /  13.0 km/h 25 % 0 in /  0.0 mm
14:23 87.4 °F /  30.8 °C 47.3 °F /  8.5 °C 30 in /  1015.8 hPa SSE 10.5 mph /  16.9 km/h 10.5 mph /  16.9 km/h 25 % 0 in /  0.0 mm
14:28 87.4 °F /  30.8 °C 47.3 °F /  8.5 °C 30 in /  1015.8 hPa NNE 5.8 mph /  9.3 km/h 5.8 mph /  9.3 km/h 25 % 0 in /  0.0 mm
14:33 87.3 °F /  30.7 °C 47.1 °F /  8.4 °C 30 in /  1014.8 hPa ESE 10.5 mph /  16.9 km/h 10.5 mph /  16.9 km/h 25 % 0 in /  0.0 mm
14:38 87.1 °F /  30.6 °C 45.9 °F /  7.7 °C 30 in /  1014.8 hPa NE 10.4 mph /  16.7 km/h 10.4 mph /  16.7 km/h 24 % 0 in /  0.0 mm
14:43 87.6 °F /  30.9 °C 46.4 °F /  8.0 °C 30 in /  1014.8 hPa East 8.1 mph /  13.0 km/h 8.1 mph /  13.0 km/h 24 % 0 in /  0.0 mm
14:48 87.6 °F /  30.9 °C 47.5 °F /  8.6 °C 30 in /  1014.8 hPa ESE 6.4 mph /  10.3 km/h 6.4 mph /  10.3 km/h 25 % 0 in /  0.0 mm
14:53 87.8 °F /  31.0 °C 47.7 °F /  8.7 °C 30 in /  1014.8 hPa East 8.1 mph /  13.0 km/h 8.1 mph /  13.0 km/h 25 % 0 in /  0.0 mm
14:58 88 °F /  31.1 °C 47.7 °F /  8.7 °C 30 in /  1014.8 hPa ENE 9.2 mph /  14.8 km/h 9.2 mph /  14.8 km/h 25 % 0 in /  0.0 mm
15:03 87.1 °F /  30.6 °C 46.9 °F /  8.3 °C 30 in /  1014.8 hPa ESE 10.4 mph /  16.7 km/h 10.4 mph /  16.7 km/h 25 % 0 in /  0.0 mm
15:08 87.4 °F /  30.8 °C 47.3 °F /  8.5 °C 30 in /  1014.8 hPa SE 5.8 mph /  9.3 km/h 7.1 mph /  11.4 km/h 25 % 0 in /  0.0 mm
15:13 87.3 °F /  30.7 °C 48.2 °F /  9.0 °C 30 in /  1014.8 hPa ESE 8.1 mph /  13.0 km/h 8.1 mph /  13.0 km/h 26 % 0 in /  0.0 mm
15:18 87.6 °F /  30.9 °C 48.6 °F /  9.2 °C 30 in /  1014.8 hPa SE 9.2 mph /  14.8 km/h 9.2 mph /  14.8 km/h 26 % 0 in /  0.0 mm
15:23 88.2 °F /  31.2 °C 48.9 °F /  9.4 °C 30 in /  1014.8 hPa ESE 8.1 mph /  13.0 km/h 8.1 mph /  13.0 km/h 26 % 0 in /  0.0 mm
15:28 87.6 °F /  30.9 °C 48.6 °F /  9.2 °C 30 in /  1014.8 hPa ESE 10.4 mph /  16.7 km/h 10.4 mph /  16.7 km/h 26 % 0 in /  0.0 mm
15:33 87.8 °F /  31.0 °C 48.6 °F /  9.2 °C 29.9 in /  1013.8 hPa SE 8.1 mph /  13.0 km/h 8.1 mph /  13.0 km/h 26 % 0 in /  0.0 mm
15:38 88.2 °F /  31.2 °C 48.9 °F /  9.4 °C 29.9 in /  1013.8 hPa SSE 5.9 mph /  9.5 km/h 5.9 mph /  9.5 km/h 26 % 0 in /  0.0 mm
15:43 87.8 °F /  31.0 °C 48.6 °F /  9.2 °C 29.9 in /  1013.8 hPa SE 9.2 mph /  14.8 km/h 9.2 mph /  14.8 km/h 26 % 0 in /  0.0 mm
15:48 87.6 °F /  30.9 °C 48.6 °F /  9.2 °C 30 in /  1014.8 hPa East 8.1 mph /  13.0 km/h 8.7 mph /  14.0 km/h 26 % 0 in /  0.0 mm
15:53 87.8 °F /  31.0 °C 48.6 °F /  9.2 °C 30 in /  1014.8 hPa ESE 9.2 mph /  14.8 km/h 9.2 mph /  14.8 km/h 26 % 0 in /  0.0 mm
15:58 87.6 °F /  30.9 °C 48.6 °F /  9.2 °C 30 in /  1014.8 hPa NE 6.9 mph /  11.1 km/h 6.9 mph /  11.1 km/h 26 % 0 in /  0.0 mm
16:03 88 °F /  31.1 °C 48.7 °F /  9.3 °C 29.9 in /  1013.8 hPa East 6 mph /  9.7 km/h 6 mph /  9.7 km/h 26 % 0 in /  0.0 mm
16:08 87.8 °F /  31.0 °C 48.6 °F /  9.2 °C 29.9 in /  1013.8 hPa ESE 9.2 mph /  14.8 km/h 9.2 mph /  14.8 km/h 26 % 0 in /  0.0 mm
16:13 88 °F /  31.1 °C 48.7 °F /  9.3 °C 29.9 in /  1013.8 hPa ENE 4.9 mph /  7.9 km/h 4.9 mph /  7.9 km/h 26 % 0 in /  0.0 mm
16:18 88.2 °F /  31.2 °C 48.9 °F /  9.4 °C 29.9 in /  1013.8 hPa East 10.4 mph /  16.7 km/h 10.4 mph /  16.7 km/h 26 % 0 in /  0.0 mm
16:23 88.2 °F /  31.2 °C 48.9 °F /  9.4 °C 29.9 in /  1013.8 hPa ESE 6.9 mph /  11.1 km/h 6.9 mph /  11.1 km/h 26 % 0 in /  0.0 mm
16:28 87.8 °F /  31.0 °C 48.6 °F /  9.2 °C 29.9 in /  1013.8 hPa ENE 8.1 mph /  13.0 km/h 8.1 mph /  13.0 km/h 26 % 0 in /  0.0 mm
16:33 87.8 °F /  31.0 °C 48.6 °F /  9.2 °C 29.9 in /  1013.8 hPa ESE 6.9 mph /  11.1 km/h 6.9 mph /  11.1 km/h 26 % 0 in /  0.0 mm
16:38 88 °F /  31.1 °C 48.7 °F /  9.3 °C 29.9 in /  1013.8 hPa ESE 6.9 mph /  11.1 km/h 6.9 mph /  11.1 km/h 26 % 0 in /  0.0 mm
16:43 87.6 °F /  30.9 °C 48.6 °F /  9.2 °C 29.9 in /  1013.8 hPa ESE 6.9 mph /  11.1 km/h 6.9 mph /  11.1 km/h 26 % 0 in /  0.0 mm
16:48 88 °F /  31.1 °C 48.7 °F /  9.3 °C 29.9 in /  1013.8 hPa ENE 9.2 mph /  14.8 km/h 9.2 mph /  14.8 km/h 26 % 0 in /  0.0 mm
16:53 88.5 °F /  31.4 °C 50.4 °F /  10.2 °C 29.9 in /  1013.8 hPa East 6 mph /  9.7 km/h 6 mph /  9.7 km/h 27 % 0 in /  0.0 mm
16:58 89.4 °F /  31.9 °C 48.9 °F /  9.4 °C 29.9 in /  1013.8 hPa SE 4.6 mph /  7.4 km/h 4.6 mph /  7.4 km/h 25 % 0 in /  0.0 mm
17:03 90.3 °F /  32.4 °C 48.6 °F /  9.2 °C 29.9 in /  1013.8 hPa ESE 2.3 mph /  3.7 km/h 2.3 mph /  3.7 km/h 24 % 0 in /  0.0 mm
17:08 89.6 °F /  32.0 °C 48 °F /  8.9 °C 29.9 in /  1013.8 hPa SSE 2.3 mph /  3.7 km/h 2.3 mph /  3.7 km/h 24 % 0 in /  0.0 mm
17:13 91.2 °F /  32.9 °C 49.5 °F /  9.7 °C 29.9 in /  1013.8 hPa SW 2.3 mph /  3.7 km/h 2.3 mph /  3.7 km/h 24 % 0 in /  0.0 mm
17:18 91.9 °F /  33.3 °C 48.7 °F /  9.3 °C 29.9 in /  1013.8 hPa SW 5.8 mph /  9.3 km/h 5.8 mph /  9.3 km/h 23 % 0 in /  0.0 mm
17:23 91.9 °F /  33.3 °C 48.7 °F /  9.3 °C 29.9 in /  1013.8 hPa SW 3.3 mph /  5.3 km/h 3.3 mph /  5.3 km/h 23 % 0 in /  0.0 mm
17:28 92.1 °F /  33.4 °C 48.9 °F /  9.4 °C 29.9 in /  1013.8 hPa SW 5.9 mph /  9.5 km/h 5.9 mph /  9.5 km/h 23 % 0 in /  0.0 mm
17:33 91.6 °F /  33.1 °C 48.6 °F /  9.2 °C 29.9 in /  1013.8 hPa SW 7.4 mph /  11.9 km/h 7.4 mph /  11.9 km/h 23 % 0 in /  0.0 mm
17:38 91.9 °F /  33.3 °C 48.7 °F /  9.3 °C 29.9 in /  1013.8 hPa SSW 2.3 mph /  3.7 km/h 2.3 mph /  3.7 km/h 23 % 0 in /  0.0 mm
17:43 91.9 °F /  33.3 °C 48.7 °F /  9.3 °C 29.9 in /  1013.8 hPa WSW 4.9 mph /  7.9 km/h 4.9 mph /  7.9 km/h 23 % 0 in /  0.0 mm
17:48 91.6 °F /  33.1 °C 48.6 °F /  9.2 °C 29.9 in /  1013.8 hPa SW 7.6 mph /  12.2 km/h 7.6 mph /  12.2 km/h 23 % 0 in /  0.0 mm
17:53 91.6 °F /  33.1 °C 47.5 °F /  8.6 °C 29.9 in /  1013.8 hPa WSW 5.8 mph /  9.3 km/h 5.8 mph /  9.3 km/h 22 % 0 in /  0.0 mm
17:58 92.3 °F /  33.5 °C 49.1 °F /  9.5 °C 29.9 in /  1013.8 hPa WNW 2.3 mph /  3.7 km/h 2.3 mph /  3.7 km/h 23 % 0 in /  0.0 mm
18:03 92.7 °F /  33.7 °C 49.5 °F /  9.7 °C 29.9 in /  1013.8 hPa WSW 2.3 mph /  3.7 km/h 2.3 mph /  3.7 km/h 23 % 0 in /  0.0 mm
18:08 92.3 °F /  33.5 °C 49.1 °F /  9.5 °C 29.9 in /  1013.8 hPa SSW 3.5 mph /  5.6 km/h 4.3 mph /  6.9 km/h 23 % 0 in /  0.0 mm
18:13 91.8 °F /  33.2 °C 47.5 °F /  8.6 °C 29.9 in /  1013.8 hPa NW 4.6 mph /  7.4 km/h 4.6 mph /  7.4 km/h 22 % 0 in /  0.0 mm
18:18 91.8 °F /  33.2 °C 48.7 °F /  9.3 °C 29.9 in /  1013.8 hPa SW 3.6 mph /  5.8 km/h 3.6 mph /  5.8 km/h 23 % 0 in /  0.0 mm
18:23 91.9 °F /  33.3 °C 48.7 °F /  9.3 °C 29.9 in /  1013.8 hPa West 4.6 mph /  7.4 km/h 4.6 mph /  7.4 km/h 23 % 0 in /  0.0 mm
18:28 91.4 °F /  33.0 °C 48.4 °F /  9.1 °C 29.9 in /  1013.8 hPa SW 2.3 mph /  3.7 km/h 3.6 mph /  5.8 km/h 23 % 0 in /  0.0 mm
18:33 91.4 °F /  33.0 °C 48.4 °F /  9.1 °C 29.9 in /  1013.8 hPa SSW 3.5 mph /  5.6 km/h 3.5 mph /  5.6 km/h 23 % 0 in /  0.0 mm
18:38 91.2 °F /  32.9 °C 48.2 °F /  9.0 °C 29.9 in /  1013.8 hPa SW 4.6 mph /  7.4 km/h 4.6 mph /  7.4 km/h 23 % 0 in /  0.0 mm
18:43 91.2 °F /  32.9 °C 48.2 °F /  9.0 °C 29.9 in /  1013.8 hPa SW 2.9 mph /  4.7 km/h 3.3 mph /  5.3 km/h 23 % 0 in /  0.0 mm
18:48 90.5 °F /  32.5 °C 47.7 °F /  8.7 °C 29.9 in /  1013.8 hPa WSW 5.8 mph /  9.3 km/h 5.8 mph /  9.3 km/h 23 % 0 in /  0.0 mm
18:53 90.1 °F /  32.3 °C 47.3 °F /  8.5 °C 29.9 in /  1013.8 hPa West 2.6 mph /  4.2 km/h 2.6 mph /  4.2 km/h 23 % 0 in /  0.0 mm
18:58 89.6 °F /  32.0 °C 46.9 °F /  8.3 °C 29.9 in /  1013.8 hPa WSW 5.9 mph /  9.5 km/h 5.9 mph /  9.5 km/h 23 % 0 in /  0.0 mm
19:03 89.6 °F /  32.0 °C 46.9 °F /  8.3 °C 29.9 in /  1013.8 hPa SSW 3.3 mph /  5.3 km/h 3.3 mph /  5.3 km/h 23 % 0 in /  0.0 mm
19:08 89.2 °F /  31.8 °C 47.7 °F /  8.7 °C 29.9 in /  1013.8 hPa SSW 8.1 mph /  13.0 km/h 8.1 mph /  13.0 km/h 24 % 0 in /  0.0 mm
19:13 88.9 °F /  31.6 °C 47.5 °F /  8.6 °C 29.9 in /  1013.8 hPa WSW 9.2 mph /  14.8 km/h 9.2 mph /  14.8 km/h 24 % 0 in /  0.0 mm
19:18 88.3 °F /  31.3 °C 46.9 °F /  8.3 °C 29.9 in /  1013.8 hPa SW 5.8 mph /  9.3 km/h 5.8 mph /  9.3 km/h 24 % 0 in /  0.0 mm
19:20 75.4 °F /  24.1 °C 49.5 °F /  9.7 °C 29.9 in /  1013.8 hPa SW 2 mph /  3.2 km/h 3 mph /  4.8 km/h 40 % 0 in /  0.0 mm
19:23 88.3 °F /  31.3 °C 46.9 °F /  8.3 °C 29.9 in /  1013.8 hPa WSW 4.7 mph /  7.6 km/h 4.7 mph /  7.6 km/h 24 % 0 in /  0.0 mm
19:28 88 °F /  31.1 °C 46.8 °F /  8.2 °C 29.9 in /  1013.8 hPa WSW 4.6 mph /  7.4 km/h 4.6 mph /  7.4 km/h 24 % 0 in /  0.0 mm
19:30 75.2 °F /  24.0 °C 49.3 °F /  9.6 °C 29.9 in /  1013.8 hPa WSW 1 mph /  1.6 km/h 2 mph /  3.2 km/h 40 % 0 in /  0.0 mm
19:33 87.8 °F /  31.0 °C 46.6 °F /  8.1 °C 29.9 in /  1013.8 hPa SSW 5.8 mph /  9.3 km/h 5.8 mph /  9.3 km/h 24 % 0 in /  0.0 mm
19:38 87.1 °F /  30.6 °C 46.9 °F /  8.3 °C 29.9 in /  1013.8 hPa South 6.9 mph /  11.1 km/h 6.9 mph /  11.1 km/h 25 % 0 in /  0.0 mm
19:40 75 °F /  23.9 °C 49.6 °F /  9.8 °C 29.9 in /  1013.8 hPa Calm   1 mph /  1.6 km/h 41 % 0 in /  0.0 mm
19:43 86.9 °F /  30.5 °C 46.8 °F /  8.2 °C 29.9 in /  1013.8 hPa SSW 3.5 mph /  5.6 km/h 3.6 mph /  5.8 km/h 25 % 0 in /  0.0 mm
19:48 86.5 °F /  30.3 °C 46.6 °F /  8.1 °C 29.9 in /  1013.8 hPa WSW 2.4 mph /  3.9 km/h 4.3 mph /  6.9 km/h 25 % 0 in /  0.0 mm
19:50 74.8 °F /  23.8 °C 49.6 °F /  9.8 °C 29.9 in /  1013.8 hPa WSW 1 mph /  1.6 km/h 1 mph /  1.6 km/h 41 % 0 in /  0.0 mm
19:53 86.2 °F /  30.1 °C 46.2 °F /  7.9 °C 29.9 in /  1013.8 hPa WSW 2.4 mph /  3.9 km/h 4.3 mph /  6.9 km/h 25 % 0 in /  0.0 mm
19:58 85.8 °F /  29.9 °C 46.9 °F /  8.3 °C 29.9 in /  1013.8 hPa SW 2.9 mph /  4.7 km/h 2.9 mph /  4.7 km/h 26 % 0 in /  0.0 mm
20:00 74.3 °F /  23.5 °C 49.1 °F /  9.5 °C 29.9 in /  1013.8 hPa SW 1 mph /  1.6 km/h 2 mph /  3.2 km/h 41 % 0 in /  0.0 mm
20:03 85.1 °F /  29.5 °C 46.4 °F /  8.0 °C 29.9 in /  1013.8 hPa SSW 2.4 mph /  3.9 km/h 5.9 mph /  9.5 km/h 26 % 0 in /  0.0 mm
20:08 84.9 °F /  29.4 °C 46.2 °F /  7.9 °C 29.9 in /  1013.8 hPa SW 4.6 mph /  7.4 km/h 4.6 mph /  7.4 km/h 26 % 0 in /  0.0 mm
20:10 73.8 °F /  23.2 °C 48.6 °F /  9.2 °C 29.9 in /  1013.8 hPa SW 2 mph /  3.2 km/h 3 mph /  4.8 km/h 41 % 0 in /  0.0 mm
20:13 84.7 °F /  29.3 °C 46 °F /  7.8 °C 29.9 in /  1013.8 hPa SW 3.5 mph /  5.6 km/h 3.6 mph /  5.8 km/h 26 % 0 in /  0.0 mm
20:18 84.6 °F /  29.2 °C 45.9 °F /  7.7 °C 30 in /  1014.8 hPa SW 5.8 mph /  9.3 km/h 5.8 mph /  9.3 km/h 26 % 0 in /  0.0 mm
20:20 73.4 °F /  23.0 °C 48.9 °F /  9.4 °C 29.9 in /  1013.8 hPa SW 1 mph /  1.6 km/h 2 mph /  3.2 km/h 42 % 0 in /  0.0 mm
20:23 84 °F /  28.9 °C 46.4 °F /  8.0 °C 30 in /  1014.8 hPa SW 4.6 mph /  7.4 km/h 4.6 mph /  7.4 km/h 27 % 0 in /  0.0 mm
20:28 83.8 °F /  28.8 °C 46.2 °F /  7.9 °C 30 in /  1014.8 hPa WSW 4.3 mph /  6.9 km/h 4.3 mph /  6.9 km/h 27 % 0 in /  0.0 mm
20:29 83.8 °F /  28.8 °C 46.2 °F /  7.9 °C 30 in /  1014.8 hPa SW 4.6 mph /  7.4 km/h 4.6 mph /  7.4 km/h 27 % 0 in /  0.0 mm
20:30 73.4 °F /  23.0 °C 48.9 °F /  9.4 °C 29.9 in /  1013.8 hPa Calm   2 mph /  3.2 km/h 42 % 0 in /  0.0 mm
20:34 83.5 °F /  28.6 °C 46 °F /  7.8 °C 29.9 in /  1013.8 hPa SW 5.8 mph /  9.3 km/h 5.8 mph /  9.3 km/h 27 % 0 in /  0.0 mm
20:39 83.1 °F /  28.4 °C 46.6 °F /  8.1 °C 29.9 in /  1013.8 hPa SW 5.8 mph /  9.3 km/h 5.8 mph /  9.3 km/h 28 % 0 in /  0.0 mm
20:40 73.2 °F /  22.9 °C 50 °F /  10.0 °C 29.9 in /  1013.8 hPa WNW 1 mph /  1.6 km/h 2 mph /  3.2 km/h 44 % 0 in /  0.0 mm
20:44 82.9 °F /  28.3 °C 46.6 °F /  8.1 °C 29.9 in /  1013.8 hPa WSW 2.4 mph /  3.9 km/h 2.4 mph /  3.9 km/h 28 % 0 in /  0.0 mm
20:49 82.6 °F /  28.1 °C 46.2 °F /  7.9 °C 29.9 in /  1012.8 hPa SW 6.9 mph /  11.1 km/h 6.9 mph /  11.1 km/h 28 % 0 in /  0.0 mm
20:50 73 °F /  22.8 °C 49.8 °F /  9.9 °C 29.9 in /  1013.8 hPa Calm   1 mph /  1.6 km/h 44 % 0 in /  0.0 mm
20:54 82 °F /  27.8 °C 45.7 °F /  7.6 °C 29.9 in /  1012.8 hPa SW 4.6 mph /  7.4 km/h 4.6 mph /  7.4 km/h 28 % 0 in /  0.0 mm
20:59 82 °F /  27.8 °C 45.7 °F /  7.6 °C 29.9 in /  1012.8 hPa South 5.8 mph /  9.3 km/h 5.8 mph /  9.3 km/h 28 % 0 in /  0.0 mm
21:00 73.2 °F /  22.9 °C 50 °F /  10.0 °C 29.9 in /  1013.8 hPa Calm   1 mph /  1.6 km/h 44 % 0 in /  0.0 mm
21:04 81.7 °F /  27.6 °C 46.2 °F /  7.9 °C 29.9 in /  1013.8 hPa SW 3.5 mph /  5.6 km/h 3.5 mph /  5.6 km/h 29 % 0 in /  0.0 mm
21:09 81.3 °F /  27.4 °C 46 °F /  7.8 °C 29.9 in /  1013.8 hPa WSW 6.9 mph /  11.1 km/h 6.9 mph /  11.1 km/h 29 % 0 in /  0.0 mm
21:10 73 °F /  22.8 °C 50.4 °F /  10.2 °C 29.9 in /  1013.8 hPa West 1 mph /  1.6 km/h 1 mph /  1.6 km/h 45 % 0 in /  0.0 mm
21:14 81 °F /  27.2 °C 45.7 °F /  7.6 °C 29.9 in /  1013.8 hPa SW 5.8 mph /  9.3 km/h 5.8 mph /  9.3 km/h 29 % 0 in /  0.0 mm
21:19 80.8 °F /  27.1 °C 45.7 °F /  7.6 °C 29.9 in /  1013.8 hPa SW 3.5 mph /  5.6 km/h 3.5 mph /  5.6 km/h 29 % 0 in /  0.0 mm
21:20 72 °F /  22.2 °C 49.5 °F /  9.7 °C 29.9 in /  1013.8 hPa SW 2 mph /  3.2 km/h 2 mph /  3.2 km/h 45 % 0 in /  0.0 mm
21:24 80.4 °F /  26.9 °C 46 °F /  7.8 °C 29.9 in /  1013.8 hPa NW 3.1 mph /  5.0 km/h 3.1 mph /  5.0 km/h 30 % 0 in /  0.0 mm
21:29 80.2 °F /  26.8 °C 46 °F /  7.8 °C 29.9 in /  1013.8 hPa West 2.4 mph /  3.9 km/h 2.4 mph /  3.9 km/h 30 % 0 in /  0.0 mm
21:30 72.1 °F /  22.3 °C 50.2 °F /  10.1 °C 29.9 in /  1013.8 hPa WSW 1 mph /  1.6 km/h 2 mph /  3.2 km/h 46 % 0 in /  0.0 mm
21:34 79.9 °F /  26.6 °C 45.7 °F /  7.6 °C 29.9 in /  1013.8 hPa WSW 2.3 mph /  3.7 km/h 2.3 mph /  3.7 km/h 30 % 0 in /  0.0 mm
21:39 79.7 °F /  26.5 °C 46.4 °F /  8.0 °C 29.9 in /  1013.8 hPa Calm     31 % 0 in /  0.0 mm
21:44 79.5 °F /  26.4 °C 47.1 °F /  8.4 °C 29.9 in /  1013.8 hPa Calm     32 % 0 in /  0.0 mm
21:49 79.3 °F /  26.3 °C 46.9 °F /  8.3 °C 29.9 in /  1013.8 hPa SW 2.3 mph /  3.7 km/h 2.3 mph /  3.7 km/h 32 % 0 in /  0.0 mm
21:50 72.7 °F /  22.6 °C 50.7 °F /  10.4 °C 29.9 in /  1013.8 hPa WSW 1 mph /  1.6 km/h 2 mph /  3.2 km/h 46 % 0 in /  0.0 mm
21:54 79.3 °F /  26.3 °C 46.9 °F /  8.3 °C 29.9 in /  1013.8 hPa SSW 2.3 mph /  3.7 km/h 2.3 mph /  3.7 km/h 32 % 0 in /  0.0 mm
21:59 79.2 °F /  26.2 °C 47.7 °F /  8.7 °C 29.9 in /  1013.8 hPa SW 2.3 mph /  3.7 km/h 2.3 mph /  3.7 km/h 33 % 0 in /  0.0 mm
22:00 72.3 °F /  22.4 °C 50.4 °F /  10.2 °C 29.9 in /  1013.8 hPa WSW 1 mph /  1.6 km/h 2 mph /  3.2 km/h 46 % 0 in /  0.0 mm
22:04 79 °F /  26.1 °C 47.5 °F /  8.6 °C 29.9 in /  1013.8 hPa SW 2.2 mph /  3.5 km/h   33 % 0 in /  0.0 mm
22:09 78.8 °F /  26.0 °C 47.3 °F /  8.5 °C 29.9 in /  1013.8 hPa SW 2.4 mph /  3.9 km/h 2.4 mph /  3.9 km/h 33 % 0 in /  0.0 mm
22:10 71.8 °F /  22.1 °C 49.8 °F /  9.9 °C 29.9 in /  1012.8 hPa WSW 2 mph /  3.2 km/h 3 mph /  4.8 km/h 46 % 0 in /  0.0 mm
22:14 78.6 °F /  25.9 °C 47.8 °F /  8.8 °C 29.9 in /  1013.8 hPa SW 1.2 mph /  1.9 km/h 1.4 mph /  2.3 km/h 34 % 0 in /  0.0 mm
22:19 78.4 °F /  25.8 °C 47.7 °F /  8.7 °C 29.9 in /  1013.8 hPa SW 1.4 mph /  2.3 km/h   34 % 0 in /  0.0 mm
22:20 71.2 °F /  21.8 °C 50 °F /  10.0 °C 29.9 in /  1013.8 hPa SW 1 mph /  1.6 km/h 2 mph /  3.2 km/h 47 % 0 in /  0.0 mm
22:24 78.3 °F /  25.7 °C 47.7 °F /  8.7 °C 29.9 in /  1013.8 hPa SW 1.6 mph /  2.6 km/h 1.6 mph /  2.6 km/h 34 % 0 in /  0.0 mm
22:29 78.1 °F /  25.6 °C 47.5 °F /  8.6 °C 29.9 in /  1013.8 hPa SW 2.3 mph /  3.7 km/h 2.3 mph /  3.7 km/h 34 % 0 in /  0.0 mm
22:30 71.1 °F /  21.7 °C 49.8 °F /  9.9 °C 29.9 in /  1013.8 hPa Calm     47 % 0 in /  0.0 mm
22:34 77.9 °F /  25.5 °C 48 °F /  8.9 °C 29.9 in /  1013.8 hPa SW 2 mph /  3.2 km/h 2 mph /  3.2 km/h 35 % 0 in /  0.0 mm
22:39 77.9 °F /  25.5 °C 48 °F /  8.9 °C 29.9 in /  1013.8 hPa SW 1.6 mph /  2.6 km/h 1.6 mph /  2.6 km/h 35 % 0 in /  0.0 mm
22:40 71.1 °F /  21.7 °C 49.8 °F /  9.9 °C 29.9 in /  1012.8 hPa Calm     47 % 0 in /  0.0 mm
22:44 77.7 °F /  25.4 °C 47.8 °F /  8.8 °C 29.9 in /  1013.8 hPa SW 1.4 mph /  2.3 km/h 1.4 mph /  2.3 km/h 35 % 0 in /  0.0 mm
22:49 77.5 °F /  25.3 °C 47.7 °F /  8.7 °C 29.9 in /  1013.8 hPa SW 2.3 mph /  3.7 km/h 2.3 mph /  3.7 km/h 35 % 0 in /  0.0 mm
22:50 69.8 °F /  21.0 °C 49.3 °F /  9.6 °C 29.9 in /  1012.8 hPa WNW 1 mph /  1.6 km/h 2 mph /  3.2 km/h 48 % 0 in /  0.0 mm
22:54 77.4 °F /  25.2 °C 48.4 °F /  9.1 °C 29.9 in /  1013.8 hPa West 2.3 mph /  3.7 km/h 2.3 mph /  3.7 km/h 36 % 0 in /  0.0 mm
22:59 77.2 °F /  25.1 °C 48.2 °F /  9.0 °C 29.9 in /  1013.8 hPa WSW 2.3 mph /  3.7 km/h 2.3 mph /  3.7 km/h 36 % 0 in /  0.0 mm
23:00 69.8 °F /  21.0 °C 49.3 °F /  9.6 °C 29.9 in /  1012.8 hPa Calm   1 mph /  1.6 km/h 48 % 0 in /  0.0 mm
23:04 77 °F /  25.0 °C 48 °F /  8.9 °C 29.9 in /  1012.8 hPa WSW 2.3 mph /  3.7 km/h 2.3 mph /  3.7 km/h 36 % 0 in /  0.0 mm
23:09 77 °F /  25.0 °C 48 °F /  8.9 °C 29.9 in /  1012.8 hPa WSW 3.5 mph /  5.6 km/h 3.5 mph /  5.6 km/h 36 % 0 in /  0.0 mm
23:10 69.6 °F /  20.9 °C 50.2 °F /  10.1 °C 29.9 in /  1012.8 hPa Calm   1 mph /  1.6 km/h 50 % 0 in /  0.0 mm
23:14 77 °F /  25.0 °C 48.7 °F /  9.3 °C 29.9 in /  1012.8 hPa SW 2.4 mph /  3.9 km/h 2.4 mph /  3.9 km/h 37 % 0 in /  0.0 mm
23:19 76.8 °F /  24.9 °C 49.3 °F /  9.6 °C 29.9 in /  1013.8 hPa West 2.9 mph /  4.7 km/h 2.9 mph /  4.7 km/h 38 % 0 in /  0.0 mm
23:20 69.4 °F /  20.8 °C 50 °F /  10.0 °C 29.9 in /  1012.8 hPa NW 1 mph /  1.6 km/h 2 mph /  3.2 km/h 50 % 0 in /  0.0 mm
23:24 76.8 °F /  24.9 °C 49.3 °F /  9.6 °C 29.9 in /  1013.8 hPa West 2.3 mph /  3.7 km/h 2.3 mph /  3.7 km/h 38 % 0 in /  0.0 mm
23:29 76.5 °F /  24.7 °C 48.9 °F /  9.4 °C 29.9 in /  1013.8 hPa WSW 2.3 mph /  3.7 km/h 2.3 mph /  3.7 km/h 38 % 0 in /  0.0 mm
23:30 69.6 °F /  20.9 °C 50.2 °F /  10.1 °C 29.9 in /  1012.8 hPa WSW 1 mph /  1.6 km/h 2 mph /  3.2 km/h 50 % 0 in /  0.0 mm
23:34 76.5 °F /  24.7 °C 49.6 °F /  9.8 °C 29.9 in /  1013.8 hPa WSW 2.3 mph /  3.7 km/h 2.3 mph /  3.7 km/h 39 % 0 in /  0.0 mm
23:39 76.3 °F /  24.6 °C 49.5 °F /  9.7 °C 29.9 in /  1013.8 hPa WSW 2.4 mph /  3.9 km/h 2.4 mph /  3.9 km/h 39 % 0 in /  0.0 mm
23:40 69.6 °F /  20.9 °C 50.7 °F /  10.4 °C 29.9 in /  1012.8 hPa Calm   1 mph /  1.6 km/h 51 % 0 in /  0.0 mm
23:44 76.3 °F /  24.6 °C 49.5 °F /  9.7 °C 29.9 in /  1013.8 hPa WSW 2.3 mph /  3.7 km/h 2.3 mph /  3.7 km/h 39 % 0 in /  0.0 mm
23:49 76.1 °F /  24.5 °C 49.3 °F /  9.6 °C 29.9 in /  1013.8 hPa SW 2.3 mph /  3.7 km/h 2.3 mph /  3.7 km/h 39 % 0 in /  0.0 mm
23:50 68.9 °F /  20.5 °C 50 °F /  10.0 °C 29.9 in /  1012.8 hPa Calm   1 mph /  1.6 km/h 51 % 0 in /  0.0 mm
23:54 75.9 °F /  24.4 °C 49.8 °F /  9.9 °C 29.9 in /  1013.8 hPa SW 2.3 mph /  3.7 km/h 2.3 mph /  3.7 km/h 40 % 0 in /  0.0 mm
23:59 75.7 °F /  24.3 °C 49.6 °F /  9.8 °C 29.9 in /  1013.8 hPa SW 2.6 mph /  4.2 km/h 2.6 mph /  4.2 km/h 40 % 0 in /  0.0 mm
Meteo Sesrovires
Elogis d' Weather Underground - 3.75 mb

Guio original per  Jim McMurry - jmcmurry@mwt.net Adaptat per a la plantilla per  Wim van der Kuil - Leuven-Template.eu

Trobareu la nostra informacio del temps tambe a:

Weather Underground

AWEKAS